KDLZ

Details ICAO KDLZ
Name DELAWARE MUNI
Region United States
Timezone America/New_York (UTC-5.0)
Plans Departing 24
Arriving 5
Stats Elevation 945 ft / 288 m (AMSL)
Location 40.279702° -83.114801°
Runways 1
Magnetic Variation 7.088° W
Sunrise 2017-12-16 12:50:15 UTC / 2017-12-16 07:50:15 Local
Sunset 2017-12-16 22:08:55 UTC / 2017-12-16 17:08:55 Local
Advertisement - Login to hide

Runways

ID Width Length Bearing (true) Bearing (mag) Surface Threshold Offset Overrun Length
10 100 ft / 30 m 4,989 ft / 1,521 m 98.37° 105.46° Asphalt 0 ft / 0 m 0 ft / 0 m
28 100 ft / 30 m 4,989 ft / 1,521 m 278.38° 285.47° Asphalt 0 ft / 0 m 0 ft / 0 m

Map

Weather


0- 5 10 15 20 25 30 35+ Temperature / ° C

Clouds and Precipitation
Forecast for 2017-12-17 00:00 UTC. Updated an hour ago

Ground ~20,000 ft ~40,000 ft Winds

METAR

KDLZ 170035Z AUTO 00000KT 10SM CLR 02/M02 A3010 RMK AO2

TAF

Not found

Frequencies

Recorded 119.02 MHz AWOS 3
Approach 120.20 MHz COLUMBUS APP/DEP
Unicom 122.70 MHz CTAF/UNICOM
Warning: Do not use this data for real-world aviation or navigation. No guarantee of current accuracy is given.